Time;durP1;ratioP1;P1;durP2;ratioP2;P2;SDS_P1;SDS_P2;PMS_P1;PMS_P2;Temp;Humidity;BMP_temperature;BMP_pressure;BME280_temperature;BME280_humidity;BME280_pressure;Samples;Min_cycle;Max_cycle;Signal;HPM_P1;HPM_P2
2021/01/05 00:00:52;;;;;;;26.62;11.72;;;;;;;2.87;71.66;99799.41;308720;117;2232934;-74
2021/01/05 00:01:57;;;;;;;25.95;10.92;;;;;;;2.84;71.90;99805.89;318346;117;1962010;-73
2021/01/05 00:03:03;;;;;;;26.52;11.81;;;;;;;2.80;72.05;99799.17;337980;117;1962026;-74
2021/01/05 00:04:08;;;;;;;24.40;10.97;;;;;;;2.77;72.08;99812.81;339264;117;1964996;-72
2021/01/05 00:05:14;;;;;;;28.71;11.38;;;;;;;2.78;72.19;99803.84;339866;117;1961960;-73
2021/01/05 00:06:20;;;;;;;27.09;10.06;;;;;;;2.82;71.95;99815.03;338236;117;1961981;-73
2021/01/05 00:07:26;;;;;;;33.33;11.60;;;;;;;2.80;71.88;99815.17;294773;117;2826035;-73
2021/01/05 00:08:31;;;;;;;29.48;11.53;;;;;;;2.79;71.90;99807.34;318283;117;1964081;-72
2021/01/05 00:09:36;;;;;;;31.01;11.57;;;;;;;2.78;71.98;99819.84;340639;117;1961955;-73
2021/01/05 00:10:44;;;;;;;31.82;11.84;;;;;;;2.71;72.02;99815.27;340027;117;1962044;-73
2021/01/05 00:12:06;;;;;;;33.88;12.75;;;;;;;2.67;72.35;99822.72;300486;117;2710992;-73
2021/01/05 00:13:12;;;;;;;31.16;13.13;;;;;;;2.63;72.44;99818.69;339401;117;1961949;-73
2021/01/05 00:14:17;;;;;;;28.72;11.75;;;;;;;2.58;72.76;99821.80;337766;117;1962244;-74
2021/01/05 00:15:24;;;;;;;26.84;12.56;;;;;;;2.59;72.86;99818.16;337092;117;1962045;-74
2021/01/05 00:16:30;;;;;;;30.94;11.90;;;;;;;2.63;72.81;99814.19;337084;118;1964054;-73
2021/01/05 00:17:36;;;;;;;31.42;11.99;;;;;;;2.69;72.58;99817.24;337784;117;1960962;-73
2021/01/05 00:18:41;;;;;;;30.18;12.07;;;;;;;2.68;72.55;99819.08;339744;117;1963051;-74
2021/01/05 00:19:47;;;;;;;28.17;12.49;;;;;;;2.68;72.61;99824.41;337995;117;1964000;-73
2021/01/05 00:20:54;;;;;;;32.18;13.50;;;;;;;2.70;72.66;99827.77;337065;117;1962017;-73
2021/01/05 00:21:59;;;;;;;35.29;13.66;;;;;;;2.70;72.50;99816.24;314458;117;1963040;-73
2021/01/05 00:23:04;;;;;;;27.13;11.33;;;;;;;2.69;72.72;99828.74;340734;117;1961944;-74
2021/01/05 00:24:10;;;;;;;29.79;13.28;;;;;;;2.64;72.71;99823.85;340923;117;1960993;-73
2021/01/05 00:25:18;;;;;;;29.48;11.71;;;;;;;2.66;72.53;99825.55;340313;117;1962026;-73
2021/01/05 00:26:24;;;;;;;30.03;12.29;;;;;;;2.65;72.43;99824.72;340248;117;1961938;-72
2021/01/05 00:27:29;;;;;;;22.26;11.46;;;;;;;2.63;71.91;99834.69;337826;117;1961992;-73
2021/01/05 00:28:35;;;;;;;26.00;11.88;;;;;;;2.58;72.08;99840.47;337399;117;1962027;-73
2021/01/05 00:29:40;;;;;;;27.13;11.93;;;;;;;2.55;72.18;99838.11;338344;117;1961963;-73
2021/01/05 00:30:46;;;;;;;22.06;10.89;;;;;;;2.51;72.17;99825.22;345877;115;1965079;-73
2021/01/05 00:32:08;;;;;;;24.04;11.76;;;;;;;2.48;72.18;99826.35;297726;117;2715996;-73
2021/01/05 00:33:13;;;;;;;24.52;12.12;;;;;;;2.47;72.09;99821.19;347697;113;1961910;-73
2021/01/05 00:34:18;;;;;;;26.12;13.75;;;;;;;2.44;72.08;99824.16;350346;113;1963009;-73
2021/01/05 00:35:27;;;;;;;24.80;12.83;;;;;;;2.42;72.16;99822.46;349056;113;1961938;-73
2021/01/05 00:36:36;;;;;;;25.39;12.38;;;;;;;2.45;72.21;99823.99;348105;113;1962033;-73
2021/01/05 00:37:42;;;;;;;23.09;12.28;;;;;;;2.44;72.16;99817.00;311545;113;2669002;-73
2021/01/05 00:38:47;;;;;;;23.49;12.26;;;;;;;2.50;71.80;99820.89;331081;113;1962012;-73
2021/01/05 00:39:52;;;;;;;25.19;13.03;;;;;;;2.53;71.62;99815.25;350428;113;1963007;-73
2021/01/05 00:40:58;;;;;;;26.59;12.55;;;;;;;2.55;71.25;99810.61;349071;113;1962298;-73
2021/01/05 00:42:05;;;;;;;29.76;13.74;;;;;;;2.48;71.23;99815.69;348670;113;1962034;-73
2021/01/05 00:43:11;;;;;;;25.88;14.59;;;;;;;2.46;71.27;99814.16;317132;113;2573948;-73
2021/01/05 00:44:16;;;;;;;27.11;13.96;;;;;;;2.40;71.50;99821.77;318063;118;1962018;-73
2021/01/05 00:45:25;;;;;;;28.08;13.73;;;;;;;2.36;71.85;99816.91;349357;113;1963026;-73
2021/01/05 00:46:31;;;;;;;32.39;14.97;;;;;;;2.37;71.72;99819.41;348822;113;1962035;-73
2021/01/05 00:47:37;;;;;;;30.59;13.77;;;;;;;2.36;71.92;99815.07;347491;113;1961934;-74
2021/01/05 00:48:43;;;;;;;29.04;12.88;;;;;;;2.37;71.83;99822.07;350353;113;1961930;-73
2021/01/05 00:49:48;;;;;;;27.93;14.58;;;;;;;2.40;71.84;99820.94;348956;114;1962009;-73
2021/01/05 00:50:55;;;;;;;28.87;14.50;;;;;;;2.42;71.92;99816.30;326955;113;1962054;-73
2021/01/05 00:52:01;;;;;;;26.58;14.21;;;;;;;2.42;71.89;99819.80;343099;113;1962962;-74
2021/01/05 00:53:08;;;;;;;29.54;13.29;;;;;;;2.40;72.06;99824.44;349803;113;1962049;-73
2021/01/05 00:54:14;;;;;;;30.41;15.59;;;;;;;2.43;72.05;99820.63;289068;113;2224357;-72
2021/01/05 00:55:20;;;;;;;33.17;15.09;;;;;;;2.48;72.03;99821.02;325209;113;1963082;-72
2021/01/05 00:56:25;;;;;;;31.53;14.67;;;;;;;2.49;71.93;99827.19;349380;113;1964050;-74
2021/01/05 00:57:31;;;;;;;28.92;14.63;;;;;;;2.52;72.08;99825.08;349269;113;1962028;-73
2021/01/05 00:58:37;;;;;;;29.59;14.18;;;;;;;2.54;71.78;99820.44;349126;113;1961891;-73
2021/01/05 00:59:43;;;;;;;32.14;13.79;;;;;;;2.60;71.68;99819.83;328764;113;2346033;-72
2021/01/05 01:00:51;;;;;;;31.56;14.63;;;;;;;2.58;71.46;99821.80;350002;113;1961973;-73
2021/01/05 01:01:58;;;;;;;38.83;15.95;;;;;;;2.55;71.69;99818.61;349056;113;1961900;-73
2021/01/05 01:03:04;;;;;;;32.04;14.69;;;;;;;2.53;71.79;99817.91;337370;113;1964995;-73
2021/01/05 01:04:11;;;;;;;28.89;14.97;;;;;;;2.52;71.87;99818.91;350128;113;1961994;-74
2021/01/05 01:05:18;;;;;;;33.65;16.16;;;;;;;2.54;71.94;99814.25;302532;113;2839960;-74
2021/01/05 01:06:24;;;;;;;29.24;14.96;;;;;;;2.52;71.96;99811.75;349398;113;1963997;-72
2021/01/05 01:07:30;;;;;;;27.48;13.56;;;;;;;2.53;72.09;99816.08;348825;113;1961952;-73
2021/01/05 01:08:37;;;;;;;35.17;15.36;;;;;;;2.55;72.05;99815.94;305701;113;2767033;-73
2021/01/05 01:09:43;;;;;;;31.68;14.71;;;;;;;2.51;72.06;99810.05;343500;113;1962939;-73
2021/01/05 01:10:49;;;;;;;28.31;14.03;;;;;;;2.42;72.05;99806.47;348929;113;1960913;-73
2021/01/05 01:12:01;;;;;;;30.73;14.42;;;;;;;2.42;72.24;99808.30;349353;113;1961984;-73
2021/01/05 01:13:10;;;;;;;27.89;13.64;;;;;;;2.44;72.42;99803.66;345669;115;1961965;-72
2021/01/05 01:14:16;;;;;;;29.55;15.41;;;;;;;2.40;71.95;99808.44;345589;113;1961996;-73
2021/01/05 01:15:22;;;;;;;30.51;15.20;;;;;;;2.48;72.02;99813.02;334555;113;1962011;-73
2021/01/05 01:16:28;;;;;;;29.35;14.89;;;;;;;2.49;72.06;99808.52;350007;113;1964028;-73
2021/01/05 01:17:34;;;;;;;28.53;14.52;;;;;;;2.51;72.00;99809.22;349656;113;1962016;-73
2021/01/05 01:18:40;;;;;;;30.88;14.89;;;;;;;2.51;71.63;99801.22;349573;113;1961947;-73
2021/01/05 01:19:45;;;;;;;30.21;14.29;;;;;;;2.48;71.62;99799.69;300569;113;2125470;-73
2021/01/05 01:20:52;;;;;;;28.56;13.77;;;;;;;2.47;71.36;99807.86;345558;115;1961993;-73
2021/01/05 01:21:59;;;;;;;30.14;13.67;;;;;;;2.47;71.52;99805.19;344567;113;1961954;-73
2021/01/05 01:23:05;;;;;;;27.56;13.48;;;;;;;2.49;71.50;99797.86;328064;113;2353006;-73
2021/01/05 01:24:12;;;;;;;27.43;13.65;;;;;;;2.49;71.35;99798.72;348600;113;1962037;-73
2021/01/05 01:25:18;;;;;;;31.21;14.14;;;;;;;2.49;70.96;99804.05;349326;113;1963912;-73
2021/01/05 01:26:23;;;;;;;26.55;13.45;;;;;;;2.48;71.06;99806.86;348862;113;1961969;-73
2021/01/05 01:27:30;;;;;;;25.26;13.71;;;;;;;2.25;71.10;99775.30;325126;113;2415031;-73
2021/01/05 01:28:37;;;;;;;23.64;12.21;;;;;;;2.43;71.25;99801.97;349143;113;1962992;-73
2021/01/05 01:29:43;;;;;;;26.26;13.22;;;;;;;2.44;71.27;99795.66;349511;113;1961930;-72
2021/01/05 01:30:51;;;;;;;31.06;13.93;;;;;;;2.34;71.33;99803.72;349620;113;1961968;-73
2021/01/05 01:31:58;;;;;;;28.07;14.21;;;;;;;2.38;71.36;99801.58;350127;113;1961903;-73
2021/01/05 01:33:04;;;;;;;27.58;13.89;;;;;;;2.41;71.35;99799.47;314529;111;1991454;-73
2021/01/05 01:34:11;;;;;;;30.19;14.50;;;;;;;2.45;70.99;99796.50;356821;111;1962950;-73
2021/01/05 01:35:17;;;;;;;26.53;14.19;;;;;;;2.44;71.16;99803.66;356713;111;1961901;-73
2021/01/05 01:36:25;;;;;;;25.58;13.25;;;;;;;2.41;71.33;99804.80;356314;111;1961972;-73
2021/01/05 01:37:31;;;;;;;26.86;13.66;;;;;;;2.39;71.51;99798.77;357037;111;1962027;-74
2021/01/05 01:38:38;;;;;;;28.38;14.99;;;;;;;2.38;71.32;99796.25;352854;112;1962024;-74
2021/01/05 01:39:45;;;;;;;24.09;13.35;;;;;;;2.36;71.21;99790.25;323562;111;1961913;-73
2021/01/05 01:40:52;;;;;;;29.18;14.58;;;;;;;2.37;71.24;99797.24;293559;111;2238613;-73
2021/01/05 01:42:06;;;;;;;28.44;13.41;;;;;;;2.34;71.22;99806.38;326438;111;1963942;-72
2021/01/05 01:43:12;;;;;;;26.29;14.27;;;;;;;2.32;71.48;99799.52;313609;111;2736015;-72
2021/01/05 01:44:21;;;;;;;28.94;15.14;;;;;;;2.28;71.66;99801.66;335777;111;1962197;-73
2021/01/05 01:45:27;;;;;;;27.36;14.30;;;;;;;2.28;71.80;99800.83;337529;111;2259955;-74
2021/01/05 01:46:36;;;;;;;26.71;14.21;;;;;;;2.25;71.91;99796.63;358539;112;1963017;-73
2021/01/05 01:47:43;;;;;;;28.06;13.19;;;;;;;2.28;71.87;99795.49;311793;111;2066338;-73
2021/01/05 01:48:53;;;;;;;27.09;14.36;;;;;;;2.32;71.73;99797.69;321788;113;1962002;-73
2021/01/05 01:50:03;;;;;;;27.05;13.12;;;;;;;2.33;71.59;99801.19;357627;111;1962054;-73
2021/01/05 01:51:12;;;;;;;25.82;13.62;;;;;;;2.34;71.49;99795.72;356226;111;1960696;-73
2021/01/05 01:52:53;;;;;;;27.78;13.19;;;;;;;2.28;71.57;99798.98;356082;111;1963952;-73
2021/01/05 01:54:23;;;;;;;27.37;13.64;;;;;;;2.27;71.67;99797.30;356775;111;1961987;-73
2021/01/05 01:55:36;;;;;;;30.08;13.07;;;;;;;2.26;71.64;99802.80;356017;111;1961977;-73
2021/01/05 01:57:20;;;;;;;25.12;12.63;;;;;;;2.24;71.83;99805.59;356752;111;1961943;-73
2021/01/05 01:58:38;;;;;;;25.07;12.93;;;;;;;2.25;71.80;99804.63;356143;111;1962024;-72
2021/01/05 02:00:03;;;;;;;26.42;12.97;;;;;;;2.21;72.12;99797.90;356254;111;1961927;-72
2021/01/05 02:01:28;;;;;;;29.77;13.45;;;;;;;2.21;72.30;99803.23;356508;111;1961914;-73
2021/01/05 02:02:52;;;;;;;27.37;14.32;;;;;;;2.28;72.14;99793.66;332128;111;2231969;-73
2021/01/05 02:04:26;;;;;;;26.81;14.27;;;;;;;2.31;72.00;99790.69;337607;111;2300982;-73
2021/01/05 02:05:36;;;;;;;27.09;13.09;;;;;;;2.17;72.28;99792.04;356402;111;1960854;-72
2021/01/05 02:07:04;;;;;;;29.11;14.28;;;;;;;2.30;71.94;99788.16;355716;111;1961894;-73
2021/01/05 02:08:45;;;;;;;27.02;12.88;;;;;;;2.26;71.59;99787.63;351800;115;1963040;-72
2021/01/05 02:10:17;;;;;;;26.83;12.97;;;;;;;2.26;71.84;99790.30;358212;110;1961933;-71
2021/01/05 02:11:47;;;;;;;31.06;14.75;;;;;;;2.24;72.00;99791.44;329367;110;1961995;-72
2021/01/05 02:13:03;;;;;;;25.88;13.99;;;;;;;2.21;72.09;99781.91;333535;113;1961869;-72
2021/01/05 02:14:24;;;;;;;27.59;13.49;;;;;;;2.20;72.35;99790.91;354567;112;1962095;-71
2021/01/05 02:15:40;;;;;;;29.48;15.13;;;;;;;2.20;72.36;99790.91;359308;110;1962062;-72
2021/01/05 02:17:15;;;;;;;25.89;12.92;;;;;;;2.17;72.17;99780.52;315660;112;2726074;-71
2021/01/05 02:18:42;;;;;;;26.01;13.14;;;;;;;2.15;72.29;99779.85;321625;110;2679926;-72
2021/01/05 02:19:52;;;;;;;27.12;13.74;;;;;;;2.12;72.15;99774.83;360608;110;1961897;-71
2021/01/05 02:21:05;;;;;;;26.43;13.77;;;;;;;2.12;72.23;99772.99;359979;110;1961995;-71
2021/01/05 02:22:39;;;;;;;24.72;13.23;;;;;;;2.11;72.01;99776.62;359531;110;1961966;-72
2021/01/05 02:24:02;;;;;;;;;;;;;;;2.14;72.03;99775.48;310852;110;2144561;-72
2021/01/05 02:25:17;;;;;;;25.20;13.18;;;;;;;2.17;71.87;99775.19;360496;110;1960983;-71
2021/01/05 02:26:31;;;;;;;24.16;12.00;;;;;;;2.17;71.38;99776.05;356977;111;1962021;-72
2021/01/05 02:27:51;;;;;;;26.89;12.90;;;;;;;2.09;71.48;99767.97;360174;110;1961940;-71
2021/01/05 02:29:04;;;;;;;27.72;13.95;;;;;;;2.08;71.78;99766.27;356478;112;1961999;-73
2021/01/05 02:30:13;;;;;;;25.37;14.01;;;;;;;2.11;71.68;99771.30;340267;110;1961965;-70
2021/01/05 02:31:29;;;;;;;30.47;14.35;;;;;;;2.13;71.84;99769.33;329090;110;1961935;-70
2021/01/05 02:32:57;;;;;;;26.93;15.12;;;;;;;2.13;71.65;99774.66;330278;114;1962812;-71
2021/01/05 02:34:11;;;;;;;27.18;13.78;;;;;;;2.14;71.82;99775.48;343604;110;1961977;-71
2021/01/05 02:35:41;;;;;;;33.54;14.16;;;;;;;2.15;72.08;99770.02;360861;110;1961947;-71
2021/01/05 02:37:33;;;;;;;27.96;13.45;;;;;;;2.19;71.87;99770.55;359573;110;1961958;-71
2021/01/05 02:39:19;;;;;;;28.41;13.84;;;;;;;2.19;71.86;99773.22;335180;119;1962997;-70
2021/01/05 02:41:03;;;;;;;28.08;13.93;;;;;;;2.23;71.80;99763.95;300033;118;2226937;-73
2021/01/05 02:42:29;;;;;;;32.23;14.43;;;;;;;2.24;71.73;99767.45;323976;120;1962084;-70
2021/01/05 02:44:29;;;;;;;30.67;14.62;;;;;;;2.30;71.66;99758.84;349870;110;1961842;-72
2021/01/05 02:46:09;;;;;;;30.02;15.56;;;;;;;2.30;71.62;99756.17;345233;114;1968883;-72
2021/01/05 02:47:59;;;;;;;31.35;15.80;;;;;;;2.33;71.60;99750.54;339150;112;1962106;-70
2021/01/05 02:49:45;;;;;;;30.54;14.04;;;;;;;2.33;71.90;99750.54;360016;110;1961998;-72
2021/01/05 02:51:28;;;;;;;29.52;14.45;;;;;;;2.38;71.58;99753.59;360954;112;1961964;-72
2021/01/05 02:53:05;;;;;;;32.83;16.52;;;;;;;2.42;71.57;99752.31;337883;118;1961920;-72
2021/01/05 02:54:55;;;;;;;31.13;14.99;;;;;;;2.45;71.56;99740.51;342466;110;2948893;-71
2021/01/05 02:56:41;;;;;;;29.27;14.77;;;;;;;2.47;71.31;99739.37;334361;112;1969017;-72
2021/01/05 02:58:25;;;;;;;28.35;15.11;;;;;;;2.51;71.12;99739.89;323886;110;1978411;-72
2021/01/05 02:59:57;;;;;;;27.74;15.72;;;;;;;2.49;71.26;99740.06;311395;118;1961917;-73
2021/01/05 03:01:30;;;;;;;30.48;14.60;;;;;;;2.50;71.31;99735.56;358394;110;1964983;-71
2021/01/05 03:03:12;;;;;;;;;;;;;;;2.55;71.28;99733.28;345640;110;2241950;-72
2021/01/05 03:04:36;;;;;;;32.82;15.89;;;;;;;2.47;71.21;99720.70;360656;110;1960917;-71
2021/01/05 03:06:27;;;;;;;29.53;14.99;;;;;;;2.56;71.09;99727.77;360688;110;1961937;-71
2021/01/05 03:07:53;;;;;;;30.58;16.23;;;;;;;2.61;71.09;99722.82;355474;111;1962031;-72
2021/01/05 03:09:42;;;;;;;30.76;15.71;;;;;;;2.60;70.91;99720.33;359062;110;1962940;-72
2021/01/05 03:11:10;;;;;;;31.78;16.31;;;;;;;2.59;70.94;99716.83;360878;110;1963988;-72
2021/01/05 03:12:54;;;;;;;31.95;15.98;;;;;;;2.58;71.14;99714.30;359653;110;1961916;-73
2021/01/05 03:14:15;;;;;;;29.87;15.99;;;;;;;2.53;71.22;99720.09;341550;117;1963036;-72
2021/01/05 03:15:48;;;;;;;30.04;14.39;;;;;;;2.57;71.43;99712.64;356884;110;1962950;-73
2021/01/05 03:17:24;;;;;;;30.13;16.27;;;;;;;2.55;71.49;99710.11;314368;110;2085086;-72
2021/01/05 03:19:11;;;;;;;29.69;14.69;;;;;;;2.60;71.30;99714.99;361869;110;1962092;-71
2021/01/05 03:20:44;;;;;;;28.53;14.13;;;;;;;2.62;71.00;99713.84;361660;110;1962073;-71
2021/01/05 03:22:12;;;;;;;29.84;16.56;;;;;;;2.52;71.19;99714.92;361571;110;1961967;-71
2021/01/05 03:23:50;;;;;;;29.98;15.38;;;;;;;2.56;71.09;99724.27;335057;110;1961908;-72
2021/01/05 03:25:16;;;;;;;30.98;15.47;;;;;;;2.51;71.33;99714.06;360604;110;1964924;-71
2021/01/05 03:26:44;;;;;;;29.91;14.96;;;;;;;2.54;71.15;99718.25;336143;118;1962002;-70
2021/01/05 03:28:12;;;;;;;29.68;14.07;;;;;;;2.56;71.20;99718.94;336069;118;1962018;-71
2021/01/05 03:29:36;;;;;;;27.14;13.43;;;;;;;2.53;71.39;99708.59;335077;118;1964016;-71
2021/01/05 03:31:07;;;;;;;22.03;10.40;;;;;;;2.56;71.18;99702.94;330957;120;1963026;-71
2021/01/05 03:32:32;;;;;;;21.48;10.34;;;;;;;2.56;71.16;99706.44;334727;115;1962002;-72
2021/01/05 03:33:59;;;;;;;18.01;9.93;;;;;;;2.61;70.50;99697.98;344888;115;1961933;-71
2021/01/05 03:35:24;;;;;;;20.39;10.33;;;;;;;2.58;70.18;99709.80;311810;115;2917031;-73
2021/01/05 03:36:50;;;;;;;20.83;11.49;;;;;;;2.51;70.41;99714.06;323786;110;1963947;-72
2021/01/05 03:38:15;;;;;;;21.36;10.54;;;;;;;2.45;70.64;99719.18;359991;110;1963964;-72
2021/01/05 03:39:39;;;;;;;19.40;10.46;;;;;;;2.39;70.88;99721.46;359489;110;1962008;-73
2021/01/05 03:41:03;;;;;;;18.73;9.79;;;;;;;2.38;71.21;99717.13;329846;110;1961872;-73
2021/01/05 03:42:28;;;;;;;18.92;10.11;;;;;;;2.38;71.43;99718.94;315921;110;2766050;-72
2021/01/05 03:43:53;;;;;;;20.08;10.35;;;;;;;2.41;71.37;99716.83;334265;110;2929905;-68
2021/01/05 03:45:21;;;;;;;19.55;10.12;;;;;;;2.42;71.32;99713.16;314879;110;2797042;-73
2021/01/05 03:46:46;;;;;;;21.21;11.81;;;;;;;2.44;71.36;99717.52;358986;110;1961990;-72
2021/01/05 03:48:10;;;;;;;22.21;12.50;;;;;;;2.45;71.19;99719.18;359806;110;1963004;-72
2021/01/05 03:49:34;;;;;;;19.16;11.14;;;;;;;2.43;71.25;99716.66;358921;110;1961916;-71
2021/01/05 03:50:51;;;;;;;23.11;11.59;;;;;;;2.41;71.37;99710.66;321887;114;2476938;-71
2021/01/05 03:52:16;;;;;;;24.51;11.81;;;;;;;2.47;71.11;99712.70;352044;113;1961969;-69
2021/01/05 03:53:40;;;;;;;23.04;11.31;;;;;;;2.45;71.15;99714.68;361562;110;1961944;-70
2021/01/05 03:55:06;;;;;;;23.02;12.01;;;;;;;2.46;71.37;99712.84;360633;110;1961908;-72
2021/01/05 03:56:30;;;;;;;24.96;11.36;;;;;;;2.50;71.32;99715.06;337874;110;2238296;-71
2021/01/05 03:57:55;;;;;;;17.97;9.72;;;;;;;2.52;71.27;99715.75;319415;110;2885944;-70
2021/01/05 03:59:20;;;;;;;16.24;8.79;;;;;;;2.45;70.98;99713.84;332348;110;2496963;-72
2021/01/05 04:00:45;;;;;;;20.08;9.76;;;;;;;2.40;71.15;99709.80;349286;110;1962000;-71
2021/01/05 04:01:52;;;;;;;18.00;8.34;;;;;;;2.33;71.56;99711.42;360592;110;1961945;-71
2021/01/05 04:02:58;;;;;;;16.38;8.92;;;;;;;2.34;71.59;99709.58;363460;110;1961953;-70
2021/01/05 04:04:04;;;;;;;17.14;8.97;;;;;;;2.36;71.67;99712.94;298901;110;2243473;-71
2021/01/05 04:05:13;;;;;;;19.04;9.13;;;;;;;2.39;71.45;99709.97;336928;110;1962931;-72
2021/01/05 04:06:20;;;;;;;19.45;10.56;;;;;;;2.41;71.32;99705.33;360788;112;1962005;-70
2021/01/05 04:07:26;;;;;;;17.45;9.06;;;;;;;2.42;71.30;99705.16;360665;110;1962984;-71
2021/01/05 04:08:31;;;;;;;16.82;8.82;;;;;;;2.40;71.24;99698.30;360735;110;1964062;-71
2021/01/05 04:09:36;;;;;;;17.53;8.60;;;;;;;2.38;71.52;99705.61;360468;110;1961997;-72
2021/01/05 04:10:44;;;;;;;19.87;9.53;;;;;;;2.36;71.68;99697.78;318644;110;2745866;-72
2021/01/05 04:11:49;;;;;;;16.72;8.21;;;;;;;2.40;71.67;99707.12;354001;110;1962031;-72
2021/01/05 04:12:55;;;;;;;18.15;9.34;;;;;;;2.40;71.52;99698.30;361677;110;1964954;-73
2021/01/05 04:14:01;;;;;;;18.41;9.16;;;;;;;2.38;71.67;99703.80;353713;113;1961876;-71
2021/01/05 04:15:10;;;;;;;19.08;8.98;;;;;;;2.42;71.63;99709.66;361489;110;1962020;-72
2021/01/05 04:16:16;;;;;;;17.93;9.33;;;;;;;2.48;71.32;99702.88;360854;110;1963023;-72
2021/01/05 04:17:22;;;;;;;19.49;9.51;;;;;;;2.46;71.40;99700.38;326319;110;2582957;-72
2021/01/05 04:18:28;;;;;;;17.28;9.31;;;;;;;2.42;71.56;99704.33;345969;110;1962204;-73
2021/01/05 04:19:33;;;;;;;16.86;8.74;;;;;;;2.36;71.71;99703.11;358260;110;1961881;-72
2021/01/05 04:20:39;;;;;;;19.77;9.27;;;;;;;2.32;71.85;99709.72;360072;110;1962014;-72
2021/01/05 04:21:50;;;;;;;16.94;8.45;;;;;;;2.33;72.04;99699.89;359537;110;1962030;-71
2021/01/05 04:22:57;;;;;;;15.53;8.57;;;;;;;2.22;72.37;99698.29;361484;110;1961908;-72
2021/01/05 04:24:02;;;;;;;19.06;9.35;;;;;;;2.26;72.15;99697.02;334140;110;1961959;-70
2021/01/05 04:25:09;;;;;;;21.46;9.59;;;;;;;2.30;72.01;99702.87;362658;110;1964000;-73
2021/01/05 04:26:16;;;;;;;16.64;8.90;;;;;;;2.35;71.68;99697.92;337036;110;2394919;-73
2021/01/05 04:27:22;;;;;;;21.36;9.15;;;;;;;2.37;71.52;99693.28;343550;110;1961951;-72
2021/01/05 04:28:29;;;;;;;16.94;8.31;;;;;;;2.34;71.48;99697.09;363610;110;1962043;-72
2021/01/05 04:29:35;;;;;;;16.62;7.97;;;;;;;2.39;71.23;99689.47;362497;110;1960965;-71
2021/01/05 04:30:40;;;;;;;18.11;8.67;;;;;;;2.40;71.04;99699.13;332750;110;2479904;-72
2021/01/05 04:31:46;;;;;;;19.85;8.59;;;;;;;2.38;71.09;99694.94;339833;110;1960968;-71
2021/01/05 04:32:53;;;;;;;18.15;8.83;;;;;;;2.39;71.16;99701.97;357414;110;1962881;-71
2021/01/05 04:33:59;;;;;;;15.43;8.61;;;;;;;2.37;71.21;99707.44;363221;110;1960953;-70
2021/01/05 04:35:06;;;;;;;15.31;8.47;;;;;;;2.39;71.13;99693.97;307508;110;2233936;-70
2021/01/05 04:36:12;;;;;;;18.08;9.22;;;;;;;2.35;71.12;99693.42;362625;110;1963980;-71
2021/01/05 04:37:19;;;;;;;19.66;9.12;;;;;;;2.31;71.16;99697.39;363983;110;1960908;-71
2021/01/05 04:38:24;;;;;;;17.07;8.18;;;;;;;2.26;71.38;99691.69;341353;110;2339253;-71
2021/01/05 04:39:30;;;;;;;13.26;7.17;;;;;;;2.26;71.48;99693.52;335866;110;1961949;-70
2021/01/05 04:40:44;;;;;;;14.47;8.44;;;;;;;2.26;71.49;99694.34;361932;110;1961940;-71
2021/01/05 04:42:05;;;;;;;15.82;8.09;;;;;;;2.25;71.58;99692.68;300546;110;2238673;-70
2021/01/05 04:43:32;;;;;;;17.87;8.93;;;;;;;2.23;71.66;99697.32;362037;110;1960923;-71
2021/01/05 04:44:59;;;;;;;16.83;8.32;;;;;;;2.26;71.70;99685.52;363872;110;1962075;-72
2021/01/05 04:46:21;;;;;;;14.84;7.54;;;;;;;2.19;71.94;99687.94;363279;110;1962008;-72
2021/01/05 04:47:50;;;;;;;16.14;8.65;;;;;;;2.15;72.18;99689.25;363500;110;1960829;-72
2021/01/05 04:49:00;;;;;;;16.07;8.07;;;;;;;2.16;72.21;99689.08;362472;110;1960810;-71
2021/01/05 04:50:16;;;;;;;14.98;8.72;;;;;;;2.12;72.35;99694.88;362607;110;1960816;-73
2021/01/05 04:51:41;;;;;;;15.13;6.94;;;;;;;2.12;72.45;99692.22;330444;110;2521862;-72
2021/01/05 04:52:54;;;;;;;15.84;8.18;;;;;;;2.14;72.53;99692.88;334275;110;2451919;-72
2021/01/05 04:54:11;;;;;;;19.02;8.83;;;;;;;2.19;72.63;99687.94;363441;110;1960857;-72
2021/01/05 04:55:37;;;;;;;17.74;9.22;;;;;;;2.22;72.27;99695.63;363204;110;1961964;-72
2021/01/05 04:57:07;;;;;;;19.13;9.58;;;;;;;2.21;72.21;99691.30;363162;110;1960994;-71
2021/01/05 04:58:26;;;;;;;17.56;9.06;;;;;;;2.24;72.16;99695.48;362892;110;1960983;-74
2021/01/05 04:59:41;;;;;;;17.11;8.73;;;;;;;2.30;71.87;99692.20;339707;110;2375949;-72
2021/01/05 05:00:47;;;;;;;16.59;8.63;;;;;;;2.31;71.86;99697.39;332357;110;1963974;-71
2021/01/05 05:01:53;;;;;;;15.68;7.81;;;;;;;2.31;71.65;99697.39;361664;110;1961983;-72
2021/01/05 05:03:02;;;;;;;15.62;7.89;;;;;;;2.33;71.52;99692.76;361616;110;1961939;-72
2021/01/05 05:04:36;;;;;;;14.62;7.71;;;;;;;2.33;71.67;99684.76;362212;110;1962050;-72
2021/01/05 05:06:21;;;;;;;14.81;7.57;;;;;;;2.35;71.78;99688.09;362788;111;1962002;-71
2021/01/05 05:07:48;;;;;;;14.38;8.99;;;;;;;2.38;71.77;99690.48;362680;110;1961882;-73
2021/01/05 05:09:23;;;;;;;15.37;8.19;;;;;;;2.42;71.67;99696.33;344791;115;1964907;-73
2021/01/05 05:10:45;;;;;;;16.04;7.99;;;;;;;2.40;71.87;99690.30;328191;117;1964097;-73
2021/01/05 05:12:17;;;;;;;17.14;8.80;;;;;;;2.45;71.95;99693.35;343643;117;1961999;-70
2021/01/05 05:13:32;;;;;;;21.84;13.33;;;;;;;2.44;71.90;99689.02;344174;117;1963031;-73
2021/01/05 05:14:54;;;;;;;18.78;10.11;;;;;;;2.51;72.07;99686.56;344891;115;1963982;-73
2021/01/05 05:16:18;;;;;;;18.51;10.24;;;;;;;2.55;71.88;99685.28;320684;118;1962899;-73
2021/01/05 05:17:39;;;;;;;16.48;8.23;;;;;;;2.04;71.80;99598.86;320500;116;2391065;-73
2021/01/05 05:19:10;;;;;;;17.64;8.34;;;;;;;2.59;72.02;99699.96;320213;117;2422029;-73
2021/01/05 05:20:22;;;;;;;16.95;8.78;;;;;;;2.64;72.01;99695.84;344462;117;1961856;-73
2021/01/05 05:21:34;;;;;;;17.04;8.81;;;;;;;2.69;71.82;99689.22;326220;117;2282989;-72
2021/01/05 05:22:58;;;;;;;16.28;8.57;;;;;;;2.73;71.67;99695.94;342513;116;1961938;-72
2021/01/05 05:24:26;;;;;;;17.52;8.63;;;;;;;2.77;71.44;99691.95;332029;121;1963991;-73
2021/01/05 05:25:36;;;;;;;18.18;9.28;;;;;;;2.80;71.07;99688.97;309972;117;2598944;-71
2021/01/05 05:27:18;;;;;;;21.72;10.39;;;;;;;2.73;71.01;99696.77;322717;117;1962033;-74
2021/01/05 05:28:30;;;;;;;16.98;8.91;;;;;;;2.65;70.89;99688.70;344078;117;1961959;-74
2021/01/05 05:29:48;;;;;;;16.76;8.09;;;;;;;2.55;71.19;99678.11;343297;115;1960746;-71
2021/01/05 05:30:54;;;;;;;14.83;7.65;;;;;;;2.54;71.33;99680.92;343340;116;1964972;-71
2021/01/05 05:32:03;;;;;;;15.54;8.24;;;;;;;2.51;71.23;99683.90;343871;117;1961956;-73
2021/01/05 05:33:18;;;;;;;16.61;8.77;;;;;;;2.35;71.68;99682.75;337469;120;1962047;-71
2021/01/05 05:34:30;;;;;;;17.26;8.83;;;;;;;2.47;71.46;99683.38;343798;117;1962013;-72
2021/01/05 05:35:55;;;;;;;19.81;9.07;;;;;;;2.43;71.53;99679.33;317403;116;2441889;-72
2021/01/05 05:37:04;;;;;;;17.43;8.65;;;;;;;2.37;71.75;99686.11;312721;117;1961981;-72
2021/01/05 05:38:49;;;;;;;19.08;9.22;;;;;;;2.34;71.87;99681.09;302856;117;2718072;-72
2021/01/05 05:40:04;;;;;;;17.81;9.88;;;;;;;2.34;71.91;99678.42;336918;118;1961976;-71
2021/01/05 05:41:44;;;;;;;17.20;8.94;;;;;;;2.28;72.11;99681.71;343376;116;1964017;-71
2021/01/05 05:43:15;;;;;;;17.16;9.05;;;;;;;2.30;72.35;99678.88;323253;117;1962013;-71
2021/01/05 05:44:42;;;;;;;17.63;9.29;;;;;;;2.38;72.28;99682.48;338408;116;1964047;-71
2021/01/05 05:45:58;;;;;;;16.47;8.22;;;;;;;2.41;71.91;99673.34;343097;116;1961967;-72
2021/01/05 05:47:20;;;;;;;17.85;9.44;;;;;;;2.44;72.02;99672.19;343659;116;1961942;-72
2021/01/05 05:48:42;;;;;;;16.09;8.99;;;;;;;2.46;72.11;99676.38;344019;117;1964920;-72
2021/01/05 05:50:16;;;;;;;16.46;9.32;;;;;;;2.47;72.05;99671.88;343691;117;1961955;-71